sensor_id;sensor_type;location;lat;lon;timestamp;pressure;altitude;pressure_sealevel;temperature;humidity
70053;BME280;57398;52.032;4.376;2023-01-16T00:01:35;99770.53;;;2.46;nan
70053;BME280;57398;52.032;4.376;2023-01-16T00:04:25;99766.34;;;2.45;nan
70053;BME280;57398;52.032;4.376;2023-01-16T00:07:13;99748.00;;;2.35;nan
70053;BME280;57398;52.032;4.376;2023-01-16T00:10:02;99741.66;;;2.30;nan
70053;BME280;57398;52.032;4.376;2023-01-16T00:12:50;99735.38;;;2.33;nan
70053;BME280;57398;52.032;4.376;2023-01-16T00:15:44;99727.88;;;2.32;nan
70053;BME280;57398;52.032;4.376;2023-01-16T00:18:32;99726.66;;;2.21;nan
70053;BME280;57398;52.032;4.376;2023-01-16T00:21:23;99717.78;;;2.23;nan
70053;BME280;57398;52.032;4.376;2023-01-16T00:24:12;99722.38;;;2.35;nan
70053;BME280;57398;52.032;4.376;2023-01-16T00:27:00;99731.28;;;2.45;nan
70053;BME280;57398;52.032;4.376;2023-01-16T00:29:48;99726.19;;;2.59;nan
70053;BME280;57398;52.032;4.376;2023-01-16T00:32:36;99711.06;;;2.70;nan
70053;BME280;57398;52.032;4.376;2023-01-16T00:35:24;99707.47;;;2.71;nan
70053;BME280;57398;52.032;4.376;2023-01-16T00:38:14;99698.00;;;2.65;nan
70053;BME280;57398;52.032;4.376;2023-01-16T00:41:03;99693.09;;;2.70;nan
70053;BME280;57398;52.032;4.376;2023-01-16T00:43:51;99693.09;;;2.64;nan
70053;BME280;57398;52.032;4.376;2023-01-16T00:46:39;99685.97;;;2.59;nan
70053;BME280;57398;52.032;4.376;2023-01-16T00:49:27;99680.03;;;2.59;nan
70053;BME280;57398;52.032;4.376;2023-01-16T00:52:15;99668.00;;;2.53;nan
70053;BME280;57398;52.032;4.376;2023-01-16T00:55:05;99665.47;;;2.59;nan
70053;BME280;57398;52.032;4.376;2023-01-16T00:57:53;99657.75;;;2.46;nan
70053;BME280;57398;52.032;4.376;2023-01-16T01:00:41;99648.88;;;2.48;nan
70053;BME280;57398;52.032;4.376;2023-01-16T01:03:30;99639.97;;;2.44;nan
70053;BME280;57398;52.032;4.376;2023-01-16T01:06:18;99634.28;;;2.49;nan
70053;BME280;57398;52.032;4.376;2023-01-16T01:09:06;99630.72;;;2.43;nan
70053;BME280;57398;52.032;4.376;2023-01-16T01:11:57;99623.63;;;2.45;nan
70053;BME280;57398;52.032;4.376;2023-01-16T01:14:45;99620.28;;;2.51;nan
70053;BME280;57398;52.032;4.376;2023-01-16T01:17:33;99614.78;;;2.48;nan
70053;BME280;57398;52.032;4.376;2023-01-16T01:20:21;99616.53;;;2.54;nan
70053;BME280;57398;52.032;4.376;2023-01-16T01:23:09;99600.59;;;2.52;nan
70053;BME280;57398;52.032;4.376;2023-01-16T01:25:57;99605.50;;;2.54;nan
70053;BME280;57398;52.032;4.376;2023-01-16T01:28:46;99601.38;;;2.53;nan
70053;BME280;57398;52.032;4.376;2023-01-16T01:31:34;99587.78;;;2.52;nan
70053;BME280;57398;52.032;4.376;2023-01-16T01:34:23;99576.50;;;2.53;nan
70053;BME280;57398;52.032;4.376;2023-01-16T01:37:11;99570.59;;;2.59;nan
70053;BME280;57398;52.032;4.376;2023-01-16T01:39:59;99563.09;;;2.58;nan
70053;BME280;57398;52.032;4.376;2023-01-16T01:42:47;99558.16;;;2.56;nan
70053;BME280;57398;52.032;4.376;2023-01-16T01:45:41;99547.72;;;2.51;nan
70053;BME280;57398;52.032;4.376;2023-01-16T01:48:35;99545.56;;;2.55;nan
70053;BME280;57398;52.032;4.376;2023-01-16T01:51:28;99541.00;;;2.63;nan
70053;BME280;57398;52.032;4.376;2023-01-16T01:54:22;99536.09;;;2.68;nan
70053;BME280;57398;52.032;4.376;2023-01-16T01:57:13;99531.94;;;2.67;nan
70053;BME280;57398;52.032;4.376;2023-01-16T02:00:05;99521.69;;;2.67;nan
70053;BME280;57398;52.032;4.376;2023-01-16T02:03:00;99512.22;;;2.68;nan
70053;BME280;57398;52.032;4.376;2023-01-16T02:05:50;99515.97;;;2.65;nan
70053;BME280;57398;52.032;4.376;2023-01-16T02:08:39;99500.56;;;2.72;nan
70053;BME280;57398;52.032;4.376;2023-01-16T02:11:34;99510.84;;;2.72;nan
70053;BME280;57398;52.032;4.376;2023-01-16T02:14:24;99507.91;;;2.68;nan
70053;BME280;57398;52.032;4.376;2023-01-16T02:17:16;99496.63;;;2.69;nan
70053;BME280;57398;52.032;4.376;2023-01-16T02:20:25;99504.91;;;2.85;nan
70053;BME280;57398;52.032;4.376;2023-01-16T02:23:51;99495.84;;;2.82;nan
70053;BME280;57398;52.032;4.376;2023-01-16T02:27:14;99487.56;;;2.80;nan
70053;BME280;57398;52.032;4.376;2023-01-16T02:30:21;99492.47;;;2.82;nan
70053;BME280;57398;52.032;4.376;2023-01-16T02:33:18;99471.16;;;2.81;nan
70053;BME280;57398;52.032;4.376;2023-01-16T02:36:13;99458.34;;;2.81;nan
70053;BME280;57398;52.032;4.376;2023-01-16T02:39:06;99455.59;;;2.76;nan
70053;BME280;57398;52.032;4.376;2023-01-16T02:42:04;99448.69;;;2.70;nan
70053;BME280;57398;52.032;4.376;2023-01-16T02:45:01;99442.19;;;2.81;nan
70053;BME280;57398;52.032;4.376;2023-01-16T02:47:55;99429.19;;;2.76;nan
70053;BME280;57398;52.032;4.376;2023-01-16T02:50:53;99406.53;;;2.66;nan
70053;BME280;57398;52.032;4.376;2023-01-16T02:53:45;99397.25;;;2.58;nan
70053;BME280;57398;52.032;4.376;2023-01-16T02:56:40;99385.63;;;2.62;nan
70053;BME280;57398;52.032;4.376;2023-01-16T02:59:29;99384.44;;;2.65;nan
70053;BME280;57398;52.032;4.376;2023-01-16T03:02:17;99379.09;;;2.73;nan
70053;BME280;57398;52.032;4.376;2023-01-16T03:05:06;99372.97;;;2.67;nan
70053;BME280;57398;52.032;4.376;2023-01-16T03:08:15;99364.53;;;2.60;nan
70053;BME280;57398;52.032;4.376;2023-01-16T03:11:14;99367.09;;;2.60;nan
70053;BME280;57398;52.032;4.376;2023-01-16T03:14:20;99357.44;;;2.62;nan
70053;BME280;57398;52.032;4.376;2023-01-16T03:17:25;99352.50;;;2.61;nan
70053;BME280;57398;52.032;4.376;2023-01-16T03:20:27;99345.19;;;2.64;nan
70053;BME280;57398;52.032;4.376;2023-01-16T03:23:24;99335.53;;;2.66;nan
70053;BME280;57398;52.032;4.376;2023-01-16T03:26:20;99323.09;;;2.63;nan
70053;BME280;57398;52.032;4.376;2023-01-16T03:29:17;99324.28;;;2.61;nan
70053;BME280;57398;52.032;4.376;2023-01-16T03:32:08;99317.41;;;2.61;nan
70053;BME280;57398;52.032;4.376;2023-01-16T03:35:02;99305.16;;;2.63;nan
70053;BME280;57398;52.032;4.376;2023-01-16T03:37:53;99296.69;;;2.63;nan
70053;BME280;57398;52.032;4.376;2023-01-16T03:40:44;99283.66;;;2.64;nan
70053;BME280;57398;52.032;4.376;2023-01-16T03:43:36;99278.38;;;2.59;nan
70053;BME280;57398;52.032;4.376;2023-01-16T03:46:28;99268.13;;;2.59;nan
70053;BME280;57398;52.032;4.376;2023-01-16T03:49:19;99255.88;;;2.61;nan
70053;BME280;57398;52.032;4.376;2023-01-16T03:52:12;99241.88;;;2.64;nan
70053;BME280;57398;52.032;4.376;2023-01-16T03:55:06;99235.31;;;2.68;nan
70053;BME280;57398;52.032;4.376;2023-01-16T03:58:02;99216.81;;;2.66;nan
70053;BME280;57398;52.032;4.376;2023-01-16T04:00:58;99219.16;;;2.67;nan
70053;BME280;57398;52.032;4.376;2023-01-16T04:03:58;99208.13;;;2.67;nan
70053;BME280;57398;52.032;4.376;2023-01-16T04:06:51;99195.50;;;2.65;nan
70053;BME280;57398;52.032;4.376;2023-01-16T04:09:45;99184.31;;;2.60;nan
70053;BME280;57398;52.032;4.376;2023-01-16T04:12:37;99171.06;;;2.63;nan
70053;BME280;57398;52.032;4.376;2023-01-16T04:15:30;99160.63;;;2.64;nan
70053;BME280;57398;52.032;4.376;2023-01-16T04:18:22;99164.97;;;2.64;nan
70053;BME280;57398;52.032;4.376;2023-01-16T04:21:12;99144.03;;;2.67;nan
70053;BME280;57398;52.032;4.376;2023-01-16T04:24:00;99144.81;;;2.67;nan
70053;BME280;57398;52.032;4.376;2023-01-16T04:26:50;99130.59;;;2.71;nan
70053;BME280;57398;52.032;4.376;2023-01-16T04:29:38;99119.13;;;2.74;nan
70053;BME280;57398;52.032;4.376;2023-01-16T04:32:28;99122.47;;;2.75;nan
70053;BME280;57398;52.032;4.376;2023-01-16T04:35:16;99105.09;;;2.77;nan
70053;BME280;57398;52.032;4.376;2023-01-16T04:38:04;99090.28;;;2.79;nan
70053;BME280;57398;52.032;4.376;2023-01-16T04:40:53;99084.97;;;2.80;nan
70053;BME280;57398;52.032;4.376;2023-01-16T04:43:41;99072.94;;;2.81;nan
70053;BME280;57398;52.032;4.376;2023-01-16T04:46:29;99061.13;;;2.80;nan
70053;BME280;57398;52.032;4.376;2023-01-16T04:49:18;99047.03;;;2.89;nan
70053;BME280;57398;52.032;4.376;2023-01-16T04:52:07;99034.53;;;2.92;nan
70053;BME280;57398;52.032;4.376;2023-01-16T04:54:55;99026.00;;;2.99;nan
70053;BME280;57398;52.032;4.376;2023-01-16T04:57:43;99018.31;;;2.99;nan
70053;BME280;57398;52.032;4.376;2023-01-16T05:00:33;99003.84;;;3.04;nan
70053;BME280;57398;52.032;4.376;2023-01-16T05:03:21;98996.94;;;3.05;nan
70053;BME280;57398;52.032;4.376;2023-01-16T05:06:10;98985.88;;;3.04;nan
70053;BME280;57398;52.032;4.376;2023-01-16T05:08:58;98970.16;;;3.01;nan
70053;BME280;57398;52.032;4.376;2023-01-16T05:11:47;98959.47;;;3.04;nan
70053;BME280;57398;52.032;4.376;2023-01-16T05:14:35;98939.59;;;2.99;nan
70053;BME280;57398;52.032;4.376;2023-01-16T05:17:23;98937.59;;;3.01;nan
70053;BME280;57398;52.032;4.376;2023-01-16T05:20:13;98925.78;;;3.00;nan
70053;BME280;57398;52.032;4.376;2023-01-16T05:23:02;98919.06;;;2.99;nan
70053;BME280;57398;52.032;4.376;2023-01-16T05:25:52;98914.88;;;3.05;nan
70053;BME280;57398;52.032;4.376;2023-01-16T05:28:40;98900.25;;;3.05;nan
70053;BME280;57398;52.032;4.376;2023-01-16T05:31:28;98889.44;;;3.03;nan
70053;BME280;57398;52.032;4.376;2023-01-16T05:34:16;98882.72;;;3.02;nan
70053;BME280;57398;52.032;4.376;2023-01-16T05:37:04;98870.13;;;3.01;nan
70053;BME280;57398;52.032;4.376;2023-01-16T05:39:54;98869.13;;;3.02;nan
70053;BME280;57398;52.032;4.376;2023-01-16T05:42:44;98862.44;;;3.01;nan
70053;BME280;57398;52.032;4.376;2023-01-16T05:45:33;98857.06;;;3.02;nan
70053;BME280;57398;52.032;4.376;2023-01-16T05:48:21;98859.28;;;2.99;nan
70053;BME280;57398;52.032;4.376;2023-01-16T05:51:10;98844.69;;;2.99;nan
70053;BME280;57398;52.032;4.376;2023-01-16T05:53:59;98837.44;;;2.96;nan
70053;BME280;57398;52.032;4.376;2023-01-16T05:56:48;98835.84;;;2.95;nan
70053;BME280;57398;52.032;4.376;2023-01-16T05:59:36;98824.81;;;2.94;nan
70053;BME280;57398;52.032;4.376;2023-01-16T06:02:24;98828.16;;;2.95;nan
70053;BME280;57398;52.032;4.376;2023-01-16T06:05:13;98816.34;;;2.94;nan
70053;BME280;57398;52.032;4.376;2023-01-16T06:08:01;98811.22;;;2.94;nan
70053;BME280;57398;52.032;4.376;2023-01-16T06:10:50;98797.06;;;2.91;nan
70053;BME280;57398;52.032;4.376;2023-01-16T06:13:39;98792.69;;;2.92;nan
70053;BME280;57398;52.032;4.376;2023-01-16T06:16:27;98786.91;;;2.97;nan
70053;BME280;57398;52.032;4.376;2023-01-16T06:19:15;98772.88;;;2.99;nan
70053;BME280;57398;52.032;4.376;2023-01-16T06:22:03;98778.00;;;2.99;nan
70053;BME280;57398;52.032;4.376;2023-01-16T06:24:51;98770.88;;;3.01;nan
70053;BME280;57398;52.032;4.376;2023-01-16T06:27:39;98761.19;;;3.03;nan
70053;BME280;57398;52.032;4.376;2023-01-16T06:30:28;98751.91;;;3.02;nan
70053;BME280;57398;52.032;4.376;2023-01-16T06:33:16;98740.31;;;3.00;nan
70053;BME280;57398;52.032;4.376;2023-01-16T06:36:07;98731.50;;;2.96;nan
70053;BME280;57398;52.032;4.376;2023-01-16T06:38:55;98718.91;;;2.94;nan
70053;BME280;57398;52.032;4.376;2023-01-16T06:41:43;98712.19;;;2.93;nan
70053;BME280;57398;52.032;4.376;2023-01-16T06:44:32;98709.75;;;2.98;nan
70053;BME280;57398;52.032;4.376;2023-01-16T06:47:21;98699.84;;;3.02;nan
70053;BME280;57398;52.032;4.376;2023-01-16T06:50:10;98689.91;;;3.05;nan
70053;BME280;57398;52.032;4.376;2023-01-16T06:52:58;98680.09;;;3.02;nan
70053;BME280;57398;52.032;4.376;2023-01-16T06:55:46;98667.25;;;3.02;nan
70053;BME280;57398;52.032;4.376;2023-01-16T06:58:34;98666.50;;;3.02;nan
70053;BME280;57398;52.032;4.376;2023-01-16T07:01:22;98647.75;;;3.01;nan
70053;BME280;57398;52.032;4.376;2023-01-16T07:04:11;98640.53;;;2.98;nan
70053;BME280;57398;52.032;4.376;2023-01-16T07:06:59;98635.16;;;3.00;nan
70053;BME280;57398;52.032;4.376;2023-01-16T07:09:47;98624.13;;;2.99;nan
70053;BME280;57398;52.032;4.376;2023-01-16T07:12:35;98613.97;;;3.04;nan
70053;BME280;57398;52.032;4.376;2023-01-16T07:15:23;98605.72;;;3.02;nan
70053;BME280;57398;52.032;4.376;2023-01-16T07:18:29;98593.69;;;3.03;nan
70053;BME280;57398;52.032;4.376;2023-01-16T07:21:37;98584.75;;;3.05;nan
70053;BME280;57398;52.032;4.376;2023-01-16T07:24:44;98570.16;;;3.06;nan
70053;BME280;57398;52.032;4.376;2023-01-16T07:27:32;98558.09;;;3.06;nan
70053;BME280;57398;52.032;4.376;2023-01-16T07:30:22;98553.22;;;3.05;nan
70053;BME280;57398;52.032;4.376;2023-01-16T07:33:11;98537.38;;;3.08;nan
70053;BME280;57398;52.032;4.376;2023-01-16T07:35:59;98526.75;;;3.04;nan
70053;BME280;57398;52.032;4.376;2023-01-16T07:38:48;98523.53;;;3.09;nan
70053;BME280;57398;52.032;4.376;2023-01-16T07:41:39;98518.94;;;3.11;nan
70053;BME280;57398;52.032;4.376;2023-01-16T07:44:42;98502.00;;;3.10;nan
70053;BME280;57398;52.032;4.376;2023-01-16T07:47:33;98502.56;;;3.12;nan
70053;BME280;57398;52.032;4.376;2023-01-16T07:50:21;98494.88;;;3.12;nan
70053;BME280;57398;52.032;4.376;2023-01-16T07:53:10;98485.38;;;3.12;nan
70053;BME280;57398;52.032;4.376;2023-01-16T07:56:01;98474.34;;;3.12;nan
70053;BME280;57398;52.032;4.376;2023-01-16T07:58:49;98488.50;;;3.14;nan
70053;BME280;57398;52.032;4.376;2023-01-16T08:01:41;98482.34;;;3.15;nan
70053;BME280;57398;52.032;4.376;2023-01-16T08:04:29;98477.78;;;3.18;nan
70053;BME280;57398;52.032;4.376;2023-01-16T08:07:18;98457.47;;;3.16;nan
70053;BME280;57398;52.032;4.376;2023-01-16T08:10:07;98463.16;;;3.18;nan
70053;BME280;57398;52.032;4.376;2023-01-16T08:12:56;98456.78;;;3.21;nan
70053;BME280;57398;52.032;4.376;2023-01-16T08:15:44;98448.66;;;3.24;nan
70053;BME280;57398;52.032;4.376;2023-01-16T08:18:32;98446.88;;;3.24;nan
70053;BME280;57398;52.032;4.376;2023-01-16T08:21:20;98446.88;;;3.24;nan
70053;BME280;57398;52.032;4.376;2023-01-16T08:24:09;98434.59;;;3.26;nan
70053;BME280;57398;52.032;4.376;2023-01-16T08:26:59;98442.06;;;3.28;nan
70053;BME280;57398;52.032;4.376;2023-01-16T08:29:48;98439.72;;;3.26;nan
70053;BME280;57398;52.032;4.376;2023-01-16T08:32:36;98430.78;;;3.29;nan
70053;BME280;57398;52.032;4.376;2023-01-16T08:35:25;98433.91;;;3.31;nan
70053;BME280;57398;52.032;4.376;2023-01-16T08:38:13;98417.47;;;3.32;nan
70053;BME280;57398;52.032;4.376;2023-01-16T08:41:01;98419.84;;;3.33;nan
70053;BME280;57398;52.032;4.376;2023-01-16T08:43:49;98411.59;;;3.31;nan
70053;BME280;57398;52.032;4.376;2023-01-16T08:46:58;98394.38;;;3.32;nan
70053;BME280;57398;52.032;4.376;2023-01-16T08:50:05;98397.44;;;3.29;nan
70053;BME280;57398;52.032;4.376;2023-01-16T08:53:11;98381.47;;;3.27;nan
70053;BME280;57398;52.032;4.376;2023-01-16T08:55:59;98378.91;;;3.27;nan
70053;BME280;57398;52.032;4.376;2023-01-16T08:58:47;98370.22;;;3.28;nan
70053;BME280;57398;52.032;4.376;2023-01-16T09:01:35;98366.97;;;3.32;nan
70053;BME280;57398;52.032;4.376;2023-01-16T09:04:25;98369.28;;;3.34;nan
70053;BME280;57398;52.032;4.376;2023-01-16T09:07:13;98362.91;;;3.36;nan
70053;BME280;57398;52.032;4.376;2023-01-16T09:10:01;98365.25;;;3.38;nan
70053;BME280;57398;52.032;4.376;2023-01-16T09:12:49;98357.00;;;3.36;nan
70053;BME280;57398;52.032;4.376;2023-01-16T09:15:55;98357.34;;;3.40;nan
70053;BME280;57398;52.032;4.376;2023-01-16T09:18:43;98340.63;;;3.37;nan
70053;BME280;57398;52.032;4.376;2023-01-16T09:21:32;98336.31;;;3.43;nan
70053;BME280;57398;52.032;4.376;2023-01-16T09:24:20;98338.34;;;3.41;nan
70053;BME280;57398;52.032;4.376;2023-01-16T09:27:08;98331.41;;;3.41;nan
70053;BME280;57398;52.032;4.376;2023-01-16T09:29:56;98328.69;;;3.48;nan
70053;BME280;57398;52.032;4.376;2023-01-16T09:32:45;98321.25;;;3.46;nan
70053;BME280;57398;52.032;4.376;2023-01-16T09:35:34;98321.81;;;3.48;nan
70053;BME280;57398;52.032;4.376;2023-01-16T09:38:24;98320.31;;;3.52;nan
70053;BME280;57398;52.032;4.376;2023-01-16T09:41:16;98309.19;;;3.47;nan
70053;BME280;57398;52.032;4.376;2023-01-16T09:44:26;98315.16;;;3.52;nan
70053;BME280;57398;52.032;4.376;2023-01-16T09:47:13;98303.59;;;3.50;nan
70053;BME280;57398;52.032;4.376;2023-01-16T09:50:04;98301.56;;;3.52;nan
70053;BME280;57398;52.032;4.376;2023-01-16T09:52:54;98296.75;;;3.55;nan
70053;BME280;57398;52.032;4.376;2023-01-16T09:56:02;98300.63;;;3.58;nan
70053;BME280;57398;52.032;4.376;2023-01-16T09:59:19;98299.06;;;3.57;nan
70053;BME280;57398;52.032;4.376;2023-01-16T10:02:17;98289.06;;;3.55;nan
70053;BME280;57398;52.032;4.376;2023-01-16T10:05:10;98282.91;;;3.56;nan
70053;BME280;57398;52.032;4.376;2023-01-16T10:08:04;98272.63;;;3.56;nan
70053;BME280;57398;52.032;4.376;2023-01-16T10:11:05;98274.97;;;3.58;nan
70053;BME280;57398;52.032;4.376;2023-01-16T10:14:12;98274.41;;;3.56;nan
70053;BME280;57398;52.032;4.376;2023-01-16T10:17:13;98270.06;;;3.56;nan
70053;BME280;57398;52.032;4.376;2023-01-16T10:20:21;98263.22;;;3.62;nan
70053;BME280;57398;52.032;4.376;2023-01-16T10:23:21;98256.06;;;3.64;nan
70053;BME280;57398;52.032;4.376;2023-01-16T10:26:18;98257.59;;;3.65;nan
70053;BME280;57398;52.032;4.376;2023-01-16T10:29:19;98252.69;;;3.64;nan
70053;BME280;57398;52.032;4.376;2023-01-16T10:32:12;98247.13;;;3.67;nan
70053;BME280;57398;52.032;4.376;2023-01-16T10:35:05;98240.47;;;3.71;nan
70053;BME280;57398;52.032;4.376;2023-01-16T10:38:02;98233.09;;;3.74;nan
70053;BME280;57398;52.032;4.376;2023-01-16T10:40:54;98233.63;;;3.76;nan
70053;BME280;57398;52.032;4.376;2023-01-16T10:43:44;98227.78;;;3.81;nan
70053;BME280;57398;52.032;4.376;2023-01-16T10:46:50;98227.06;;;3.86;nan
70053;BME280;57398;52.032;4.376;2023-01-16T10:49:56;98227.06;;;3.86;nan
70053;BME280;57398;52.032;4.376;2023-01-16T10:52:46;98221.44;;;3.89;nan
70053;BME280;57398;52.032;4.376;2023-01-16T10:55:35;98223.78;;;3.90;nan
70053;BME280;57398;52.032;4.376;2023-01-16T10:58:28;98208.91;;;3.92;nan
70053;BME280;57398;52.032;4.376;2023-01-16T11:01:20;98220.72;;;3.93;nan
70053;BME280;57398;52.032;4.376;2023-01-16T11:04:11;98215.72;;;4.04;nan
70053;BME280;57398;52.032;4.376;2023-01-16T11:07:13;98207.69;;;4.00;nan
70053;BME280;57398;52.032;4.376;2023-01-16T11:10:01;98198.50;;;4.04;nan
70053;BME280;57398;52.032;4.376;2023-01-16T11:12:51;98200.13;;;4.10;nan
70053;BME280;57398;52.032;4.376;2023-01-16T11:16:01;98195.25;;;4.14;nan
70053;BME280;57398;52.032;4.376;2023-01-16T11:19:17;98185.56;;;4.21;nan
70053;BME280;57398;52.032;4.376;2023-01-16T11:22:21;98178.44;;;4.28;nan
70053;BME280;57398;52.032;4.376;2023-01-16T11:25:14;98169.78;;;4.34;nan
70053;BME280;57398;52.032;4.376;2023-01-16T11:28:07;98172.34;;;4.34;nan
70053;BME280;57398;52.032;4.376;2023-01-16T11:31:00;98157.97;;;4.33;nan
70053;BME280;57398;52.032;4.376;2023-01-16T11:33:52;98153.09;;;4.37;nan
70053;BME280;57398;52.032;4.376;2023-01-16T11:36:45;98153.66;;;4.44;nan
70053;BME280;57398;52.032;4.376;2023-01-16T11:39:35;98144.00;;;4.51;nan
70053;BME280;57398;52.032;4.376;2023-01-16T11:42:23;98136.00;;;4.53;nan
70053;BME280;57398;52.032;4.376;2023-01-16T11:45:29;98128.59;;;4.56;nan
70053;BME280;57398;52.032;4.376;2023-01-16T11:48:52;98128.09;;;4.59;nan
70053;BME280;57398;52.032;4.376;2023-01-16T11:51:41;98121.22;;;4.65;nan
70053;BME280;57398;52.032;4.376;2023-01-16T11:54:32;98114.50;;;4.64;nan
70053;BME280;57398;52.032;4.376;2023-01-16T11:57:30;98104.50;;;4.68;nan
70053;BME280;57398;52.032;4.376;2023-01-16T12:00:29;98106.34;;;4.72;nan
70053;BME280;57398;52.032;4.376;2023-01-16T12:03:34;98109.75;;;4.83;nan
70053;BME280;57398;52.032;4.376;2023-01-16T12:06:40;98099.72;;;4.81;nan
70053;BME280;57398;52.032;4.376;2023-01-16T12:09:42;98096.13;;;4.88;nan
70053;BME280;57398;52.032;4.376;2023-01-16T12:12:33;98091.09;;;5.03;nan
70053;BME280;57398;52.032;4.376;2023-01-16T12:15:46;98093.13;;;5.01;nan
70053;BME280;57398;52.032;4.376;2023-01-16T12:18:45;98073.16;;;5.18;nan
70053;BME280;57398;52.032;4.376;2023-01-16T12:21:38;98079.41;;;5.38;nan
70053;BME280;57398;52.032;4.376;2023-01-16T12:24:35;98073.28;;;5.49;nan
70053;BME280;57398;52.032;4.376;2023-01-16T12:27:40;98060.38;;;5.39;nan
70053;BME280;57398;52.032;4.376;2023-01-16T12:30:37;98058.34;;;5.41;nan
70053;BME280;57398;52.032;4.376;2023-01-16T12:33:38;98052.13;;;5.32;nan
70053;BME280;57398;52.032;4.376;2023-01-16T12:36:33;98047.25;;;5.40;nan
70053;BME280;57398;52.032;4.376;2023-01-16T12:39:34;98035.13;;;5.36;nan
70053;BME280;57398;52.032;4.376;2023-01-16T12:42:38;98040.03;;;5.42;nan
70053;BME280;57398;52.032;4.376;2023-01-16T12:45:51;98032.34;;;5.48;nan
70053;BME280;57398;52.032;4.376;2023-01-16T12:48:51;98025.88;;;5.35;nan
70053;BME280;57398;52.032;4.376;2023-01-16T12:51:52;98011.97;;;5.36;nan
70053;BME280;57398;52.032;4.376;2023-01-16T12:54:57;98012.97;;;5.24;nan
70053;BME280;57398;52.032;4.376;2023-01-16T12:57:56;97999.06;;;5.20;nan
70053;BME280;57398;52.032;4.376;2023-01-16T13:01:01;97991.06;;;5.17;nan
70053;BME280;57398;52.032;4.376;2023-01-16T13:03:55;97999.53;;;5.12;nan
70053;BME280;57398;52.032;4.376;2023-01-16T13:06:48;97996.72;;;5.09;nan
70053;BME280;57398;52.032;4.376;2023-01-16T13:09:43;97988.72;;;5.10;nan
70053;BME280;57398;52.032;4.376;2023-01-16T13:12:36;97988.72;;;5.15;nan
70053;BME280;57398;52.032;4.376;2023-01-16T13:15:44;97988.19;;;5.08;nan
70053;BME280;57398;52.032;4.376;2023-01-16T13:18:39;97986.91;;;5.11;nan
70053;BME280;57398;52.032;4.376;2023-01-16T13:21:33;97986.97;;;5.16;nan
70053;BME280;57398;52.032;4.376;2023-01-16T13:24:28;97981.53;;;5.07;nan
70053;BME280;57398;52.032;4.376;2023-01-16T13:27:22;97980.47;;;5.03;nan
70053;BME280;57398;52.032;4.376;2023-01-16T13:30:13;97983.56;;;5.00;nan
70053;BME280;57398;52.032;4.376;2023-01-16T13:33:07;97975.84;;;5.05;nan
70053;BME280;57398;52.032;4.376;2023-01-16T13:36:04;97967.59;;;5.03;nan
70053;BME280;57398;52.032;4.376;2023-01-16T13:39:11;97974.84;;;5.11;nan
70053;BME280;57398;52.032;4.376;2023-01-16T13:42:04;97972.00;;;5.08;nan
70053;BME280;57398;52.032;4.376;2023-01-16T13:44:57;97975.34;;;5.08;nan
70053;BME280;57398;52.032;4.376;2023-01-16T13:48:21;97976.34;;;5.02;nan
70053;BME280;57398;52.032;4.376;2023-01-16T13:51:13;97976.88;;;5.04;nan
70053;BME280;57398;52.032;4.376;2023-01-16T13:54:02;97966.84;;;5.02;nan
70053;BME280;57398;52.032;4.376;2023-01-16T13:56:58;97969.94;;;5.10;nan
70053;BME280;57398;52.032;4.376;2023-01-16T13:59:49;97968.91;;;5.11;nan
70053;BME280;57398;52.032;4.376;2023-01-16T14:02:41;97965.31;;;5.12;nan
70053;BME280;57398;52.032;4.376;2023-01-16T14:05:44;97965.56;;;5.10;nan
70053;BME280;57398;52.032;4.376;2023-01-16T14:08:50;97969.94;;;5.10;nan
70053;BME280;57398;52.032;4.376;2023-01-16T14:12:00;97969.69;;;5.11;nan
70053;BME280;57398;52.032;4.376;2023-01-16T14:14:49;97967.13;;;5.11;nan
70053;BME280;57398;52.032;4.376;2023-01-16T14:18:15;97973.56;;;5.09;nan
70053;BME280;57398;52.032;4.376;2023-01-16T14:21:10;97967.38;;;5.10;nan
70053;BME280;57398;52.032;4.376;2023-01-16T14:24:03;97975.34;;;5.08;nan
70053;BME280;57398;52.032;4.376;2023-01-16T14:26:56;97977.13;;;5.02;nan
70053;BME280;57398;52.032;4.376;2023-01-16T14:29:47;97979.47;;;5.04;nan
70053;BME280;57398;52.032;4.376;2023-01-16T14:32:36;97982.50;;;5.01;nan
70053;BME280;57398;52.032;4.376;2023-01-16T14:35:42;97982.25;;;4.97;nan
70053;BME280;57398;52.032;4.376;2023-01-16T14:38:33;97988.41;;;4.96;nan
70053;BME280;57398;52.032;4.376;2023-01-16T14:41:28;97978.31;;;4.79;nan
70053;BME280;57398;52.032;4.376;2023-01-16T14:45:17;97985.03;;;4.86;nan
70053;BME280;57398;52.032;4.376;2023-01-16T14:48:37;97994.06;;;4.88;nan
70053;BME280;57398;52.032;4.376;2023-01-16T14:51:55;98001.44;;;4.74;nan
70053;BME280;57398;52.032;4.376;2023-01-16T14:55:08;98005.19;;;4.51;nan
70053;BME280;57398;52.032;4.376;2023-01-16T14:58:03;98005.69;;;4.16;nan
70053;BME280;57398;52.032;4.376;2023-01-16T15:00:55;97999.22;;;4.08;nan
70053;BME280;57398;52.032;4.376;2023-01-16T15:04:05;98006.97;;;4.13;nan
70053;BME280;57398;52.032;4.376;2023-01-16T15:06:55;98012.09;;;4.13;nan
70053;BME280;57398;52.032;4.376;2023-01-16T15:09:45;98013.19;;;4.23;nan
70053;BME280;57398;52.032;4.376;2023-01-16T15:12:39;98011.38;;;4.23;nan
70053;BME280;57398;52.032;4.376;2023-01-16T15:15:29;98017.34;;;4.29;nan
70053;BME280;57398;52.032;4.376;2023-01-16T15:18:20;98011.88;;;4.20;nan
70053;BME280;57398;52.032;4.376;2023-01-16T15:21:25;98020.91;;;4.23;nan
70053;BME280;57398;52.032;4.376;2023-01-16T15:24:32;98017.59;;;4.27;nan
70053;BME280;57398;52.032;4.376;2023-01-16T15:27:23;98020.34;;;4.15;nan
70053;BME280;57398;52.032;4.376;2023-01-16T15:30:14;98024.34;;;4.01;nan
70053;BME280;57398;52.032;4.376;2023-01-16T15:33:21;98035.63;;;3.73;nan
70053;BME280;57398;52.032;4.376;2023-01-16T15:36:33;98034.16;;;3.55;nan
70053;BME280;57398;52.032;4.376;2023-01-16T15:39:23;98035.38;;;3.47;nan
70053;BME280;57398;52.032;4.376;2023-01-16T15:42:16;98036.94;;;3.48;nan
70053;BME280;57398;52.032;4.376;2023-01-16T15:45:27;98045.28;;;3.39;nan
70053;BME280;57398;52.032;4.376;2023-01-16T15:48:38;98043.59;;;3.27;nan
70053;BME280;57398;52.032;4.376;2023-01-16T15:51:30;98049.44;;;3.23;nan
70053;BME280;57398;52.032;4.376;2023-01-16T15:54:18;98050.66;;;3.15;nan
70053;BME280;57398;52.032;4.376;2023-01-16T15:57:14;98052.19;;;3.16;nan
70053;BME280;57398;52.032;4.376;2023-01-16T16:00:21;98050.41;;;3.17;nan